sensor_id;sensor_type;location;lat;lon;timestamp;P1;durP1;ratioP1;P2;durP2;ratioP2
48873;SDS011;35220;46.204;5.220;2022-11-20T00:01:37;10.60;;;4.72;;
48873;SDS011;35220;46.204;5.220;2022-11-20T00:06:37;6.10;;;3.65;;
48873;SDS011;35220;46.204;5.220;2022-11-20T00:11:38;10.00;;;4.28;;
48873;SDS011;35220;46.204;5.220;2022-11-20T00:16:39;13.48;;;4.50;;
48873;SDS011;35220;46.204;5.220;2022-11-20T00:21:40;8.50;;;4.05;;
48873;SDS011;35220;46.204;5.220;2022-11-20T00:26:40;6.20;;;3.75;;
48873;SDS011;35220;46.204;5.220;2022-11-20T00:31:41;5.75;;;3.75;;
48873;SDS011;35220;46.204;5.220;2022-11-20T00:36:41;5.28;;;3.53;;
48873;SDS011;35220;46.204;5.220;2022-11-20T00:41:45;7.93;;;3.80;;
48873;SDS011;35220;46.204;5.220;2022-11-20T00:46:45;6.20;;;3.60;;
48873;SDS011;35220;46.204;5.220;2022-11-20T00:51:46;11.98;;;4.32;;
48873;SDS011;35220;46.204;5.220;2022-11-20T00:56:46;9.35;;;3.92;;
48873;SDS011;35220;46.204;5.220;2022-11-20T01:01:46;7.63;;;3.83;;
48873;SDS011;35220;46.204;5.220;2022-11-20T01:06:47;7.85;;;4.50;;
48873;SDS011;35220;46.204;5.220;2022-11-20T01:11:47;8.60;;;3.92;;
48873;SDS011;35220;46.204;5.220;2022-11-20T01:16:49;5.82;;;3.72;;
48873;SDS011;35220;46.204;5.220;2022-11-20T01:21:51;6.72;;;3.80;;
48873;SDS011;35220;46.204;5.220;2022-11-20T01:26:53;9.65;;;4.43;;
48873;SDS011;35220;46.204;5.220;2022-11-20T01:31:53;6.15;;;4.25;;
48873;SDS011;35220;46.204;5.220;2022-11-20T01:36:54;7.45;;;4.10;;
48873;SDS011;35220;46.204;5.220;2022-11-20T01:41:54;7.13;;;3.90;;
48873;SDS011;35220;46.204;5.220;2022-11-20T01:47:16;6.10;;;3.90;;
48873;SDS011;35220;46.204;5.220;2022-11-20T01:52:23;7.72;;;4.60;;
48873;SDS011;35220;46.204;5.220;2022-11-20T01:57:28;8.45;;;4.63;;
48873;SDS011;35220;46.204;5.220;2022-11-20T02:02:32;10.48;;;4.00;;
48873;SDS011;35220;46.204;5.220;2022-11-20T02:07:32;12.18;;;4.63;;
48873;SDS011;35220;46.204;5.220;2022-11-20T02:12:33;7.47;;;4.38;;
48873;SDS011;35220;46.204;5.220;2022-11-20T02:17:52;8.93;;;4.47;;
48873;SDS011;35220;46.204;5.220;2022-11-20T02:23:03;7.00;;;4.07;;
48873;SDS011;35220;46.204;5.220;2022-11-20T02:28:09;6.47;;;4.63;;
48873;SDS011;35220;46.204;5.220;2022-11-20T02:33:10;7.68;;;4.57;;
48873;SDS011;35220;46.204;5.220;2022-11-20T02:38:10;9.43;;;4.07;;
48873;SDS011;35220;46.204;5.220;2022-11-20T02:43:11;6.40;;;3.85;;
48873;SDS011;35220;46.204;5.220;2022-11-20T02:48:12;8.70;;;4.15;;
48873;SDS011;35220;46.204;5.220;2022-11-20T02:53:12;8.02;;;4.28;;
48873;SDS011;35220;46.204;5.220;2022-11-20T02:58:13;7.43;;;4.15;;
48873;SDS011;35220;46.204;5.220;2022-11-20T03:03:13;6.95;;;4.47;;
48873;SDS011;35220;46.204;5.220;2022-11-20T03:08:13;9.27;;;4.32;;
48873;SDS011;35220;46.204;5.220;2022-11-20T03:13:14;6.32;;;4.22;;
48873;SDS011;35220;46.204;5.220;2022-11-20T03:18:14;10.27;;;4.97;;
48873;SDS011;35220;46.204;5.220;2022-11-20T03:23:15;8.38;;;4.38;;
48873;SDS011;35220;46.204;5.220;2022-11-20T03:28:16;7.68;;;4.57;;
48873;SDS011;35220;46.204;5.220;2022-11-20T03:33:16;7.43;;;4.38;;
48873;SDS011;35220;46.204;5.220;2022-11-20T03:38:16;9.77;;;4.53;;
48873;SDS011;35220;46.204;5.220;2022-11-20T03:43:17;8.05;;;4.20;;
48873;SDS011;35220;46.204;5.220;2022-11-20T03:48:17;8.68;;;4.68;;
48873;SDS011;35220;46.204;5.220;2022-11-20T03:53:18;9.10;;;4.90;;
48873;SDS011;35220;46.204;5.220;2022-11-20T03:58:18;10.68;;;4.97;;
48873;SDS011;35220;46.204;5.220;2022-11-20T04:03:19;7.30;;;4.53;;
48873;SDS011;35220;46.204;5.220;2022-11-20T04:08:19;7.93;;;4.97;;
48873;SDS011;35220;46.204;5.220;2022-11-20T04:13:19;12.10;;;5.53;;
48873;SDS011;35220;46.204;5.220;2022-11-20T04:18:20;9.13;;;4.43;;
48873;SDS011;35220;46.204;5.220;2022-11-20T04:23:20;9.63;;;5.10;;
48873;SDS011;35220;46.204;5.220;2022-11-20T04:28:21;7.93;;;4.80;;
48873;SDS011;35220;46.204;5.220;2022-11-20T04:33:21;7.43;;;4.53;;
48873;SDS011;35220;46.204;5.220;2022-11-20T04:38:21;6.97;;;4.32;;
48873;SDS011;35220;46.204;5.220;2022-11-20T04:43:22;6.80;;;4.95;;
48873;SDS011;35220;46.204;5.220;2022-11-20T04:48:22;7.38;;;4.32;;
48873;SDS011;35220;46.204;5.220;2022-11-20T04:53:23;8.50;;;4.45;;
48873;SDS011;35220;46.204;5.220;2022-11-20T04:58:24;9.05;;;4.30;;
48873;SDS011;35220;46.204;5.220;2022-11-20T05:03:24;6.45;;;4.07;;
48873;SDS011;35220;46.204;5.220;2022-11-20T05:08:25;9.98;;;4.60;;
48873;SDS011;35220;46.204;5.220;2022-11-20T05:13:26;9.55;;;4.47;;
48873;SDS011;35220;46.204;5.220;2022-11-20T05:18:30;9.07;;;4.45;;
48873;SDS011;35220;46.204;5.220;2022-11-20T05:23:31;6.97;;;4.05;;
48873;SDS011;35220;46.204;5.220;2022-11-20T05:28:33;7.30;;;4.38;;
48873;SDS011;35220;46.204;5.220;2022-11-20T05:33:34;10.00;;;5.05;;
48873;SDS011;35220;46.204;5.220;2022-11-20T05:38:35;7.30;;;4.95;;
48873;SDS011;35220;46.204;5.220;2022-11-20T05:43:36;7.55;;;4.97;;
48873;SDS011;35220;46.204;5.220;2022-11-20T05:48:38;7.50;;;4.68;;
48873;SDS011;35220;46.204;5.220;2022-11-20T05:53:40;7.65;;;4.88;;
48873;SDS011;35220;46.204;5.220;2022-11-20T05:58:40;10.43;;;4.88;;
48873;SDS011;35220;46.204;5.220;2022-11-20T06:03:41;9.32;;;5.68;;
48873;SDS011;35220;46.204;5.220;2022-11-20T06:08:45;10.45;;;4.93;;
48873;SDS011;35220;46.204;5.220;2022-11-20T06:13:47;8.90;;;4.15;;
48873;SDS011;35220;46.204;5.220;2022-11-20T06:18:48;8.05;;;4.80;;
48873;SDS011;35220;46.204;5.220;2022-11-20T06:23:49;7.28;;;4.43;;
48873;SDS011;35220;46.204;5.220;2022-11-20T06:28:51;7.47;;;4.90;;
48873;SDS011;35220;46.204;5.220;2022-11-20T06:33:53;6.45;;;4.18;;
48873;SDS011;35220;46.204;5.220;2022-11-20T06:38:54;9.70;;;4.80;;
48873;SDS011;35220;46.204;5.220;2022-11-20T06:43:56;8.95;;;5.32;;
48873;SDS011;35220;46.204;5.220;2022-11-20T06:48:56;9.50;;;4.93;;
48873;SDS011;35220;46.204;5.220;2022-11-20T06:53:58;9.88;;;4.65;;
48873;SDS011;35220;46.204;5.220;2022-11-20T06:58:58;7.00;;;4.30;;
48873;SDS011;35220;46.204;5.220;2022-11-20T07:04:04;14.75;;;5.95;;
48873;SDS011;35220;46.204;5.220;2022-11-20T07:09:04;8.80;;;4.95;;
48873;SDS011;35220;46.204;5.220;2022-11-20T07:14:05;9.55;;;5.05;;
48873;SDS011;35220;46.204;5.220;2022-11-20T07:19:05;9.63;;;4.85;;
48873;SDS011;35220;46.204;5.220;2022-11-20T07:24:05;7.50;;;4.35;;
48873;SDS011;35220;46.204;5.220;2022-11-20T07:29:06;9.38;;;4.78;;
48873;SDS011;35220;46.204;5.220;2022-11-20T07:34:06;7.03;;;4.00;;
48873;SDS011;35220;46.204;5.220;2022-11-20T07:39:07;8.85;;;4.47;;
48873;SDS011;35220;46.204;5.220;2022-11-20T07:44:07;9.70;;;4.15;;
48873;SDS011;35220;46.204;5.220;2022-11-20T07:49:08;7.05;;;4.47;;
48873;SDS011;35220;46.204;5.220;2022-11-20T07:54:08;9.73;;;4.82;;
48873;SDS011;35220;46.204;5.220;2022-11-20T07:59:09;8.23;;;4.78;;
48873;SDS011;35220;46.204;5.220;2022-11-20T08:04:11;8.73;;;4.45;;
48873;SDS011;35220;46.204;5.220;2022-11-20T08:09:12;7.13;;;4.28;;
48873;SDS011;35220;46.204;5.220;2022-11-20T08:14:12;7.72;;;4.68;;
48873;SDS011;35220;46.204;5.220;2022-11-20T08:19:13;6.55;;;4.07;;
48873;SDS011;35220;46.204;5.220;2022-11-20T08:24:15;7.35;;;3.95;;
48873;SDS011;35220;46.204;5.220;2022-11-20T08:29:15;8.52;;;3.60;;
48873;SDS011;35220;46.204;5.220;2022-11-20T08:34:15;6.78;;;3.75;;
48873;SDS011;35220;46.204;5.220;2022-11-20T08:39:16;6.13;;;3.03;;
48873;SDS011;35220;46.204;5.220;2022-11-20T08:44:16;9.43;;;3.27;;
48873;SDS011;35220;46.204;5.220;2022-11-20T08:49:17;7.57;;;2.78;;
48873;SDS011;35220;46.204;5.220;2022-11-20T08:54:18;7.57;;;2.92;;
48873;SDS011;35220;46.204;5.220;2022-11-20T08:59:19;7.32;;;2.92;;
48873;SDS011;35220;46.204;5.220;2022-11-20T09:04:20;6.88;;;3.17;;
48873;SDS011;35220;46.204;5.220;2022-11-20T09:09:20;7.27;;;2.67;;
48873;SDS011;35220;46.204;5.220;2022-11-20T09:14:21;7.55;;;2.95;;
48873;SDS011;35220;46.204;5.220;2022-11-20T09:19:21;5.93;;;3.13;;
48873;SDS011;35220;46.204;5.220;2022-11-20T09:24:21;9.35;;;3.65;;
48873;SDS011;35220;46.204;5.220;2022-11-20T09:29:22;6.43;;;2.70;;
48873;SDS011;35220;46.204;5.220;2022-11-20T09:34:22;8.40;;;3.73;;
48873;SDS011;35220;46.204;5.220;2022-11-20T09:39:22;4.85;;;2.72;;
48873;SDS011;35220;46.204;5.220;2022-11-20T09:55:09;3.13;;;2.45;;
48873;SDS011;35220;46.204;5.220;2022-11-20T10:00:13;5.80;;;3.00;;
48873;SDS011;35220;46.204;5.220;2022-11-20T10:10:53;4.38;;;2.58;;
48873;SDS011;35220;46.204;5.220;2022-11-20T10:31:41;7.43;;;2.40;;
48873;SDS011;35220;46.204;5.220;2022-11-20T10:36:49;5.03;;;2.08;;
48873;SDS011;35220;46.204;5.220;2022-11-20T10:41:54;9.07;;;2.50;;
48873;SDS011;35220;46.204;5.220;2022-11-20T10:46:56;5.00;;;2.20;;
48873;SDS011;35220;46.204;5.220;2022-11-20T10:57:40;3.78;;;2.25;;
48873;SDS011;35220;46.204;5.220;2022-11-20T11:07:51;4.63;;;2.20;;
48873;SDS011;35220;46.204;5.220;2022-11-20T11:12:54;5.18;;;2.10;;
48873;SDS011;35220;46.204;5.220;2022-11-20T11:17:55;3.90;;;2.13;;
48873;SDS011;35220;46.204;5.220;2022-11-20T11:22:57;6.30;;;2.20;;
48873;SDS011;35220;46.204;5.220;2022-11-20T11:28:19;6.43;;;2.40;;
48873;SDS011;35220;46.204;5.220;2022-11-20T11:33:26;4.25;;;2.22;;
48873;SDS011;35220;46.204;5.220;2022-11-20T11:43:49;5.40;;;2.35;;
48873;SDS011;35220;46.204;5.220;2022-11-20T11:49:15;3.10;;;2.15;;
48873;SDS011;35220;46.204;5.220;2022-11-20T11:54:21;5.47;;;2.10;;
48873;SDS011;35220;46.204;5.220;2022-11-20T11:59:27;4.78;;;2.00;;
48873;SDS011;35220;46.204;5.220;2022-11-20T12:04:46;6.47;;;2.67;;
48873;SDS011;35220;46.204;5.220;2022-11-20T12:09:55;4.82;;;2.63;;
48873;SDS011;35220;46.204;5.220;2022-11-20T12:14:57;3.40;;;1.88;;
48873;SDS011;35220;46.204;5.220;2022-11-20T12:19:58;3.80;;;1.73;;
48873;SDS011;35220;46.204;5.220;2022-11-20T12:25:00;3.73;;;1.90;;
48873;SDS011;35220;46.204;5.220;2022-11-20T12:30:15;4.45;;;2.67;;
48873;SDS011;35220;46.204;5.220;2022-11-20T12:58:03;7.40;;;2.08;;
48873;SDS011;35220;46.204;5.220;2022-11-20T13:08:33;4.57;;;1.90;;
48873;SDS011;35220;46.204;5.220;2022-11-20T13:18:38;3.33;;;1.67;;
48873;SDS011;35220;46.204;5.220;2022-11-20T13:23:42;3.15;;;1.92;;
48873;SDS011;35220;46.204;5.220;2022-11-20T13:28:43;2.90;;;1.70;;
48873;SDS011;35220;46.204;5.220;2022-11-20T13:33:45;5.00;;;1.80;;
48873;SDS011;35220;46.204;5.220;2022-11-20T13:38:54;5.07;;;2.38;;
48873;SDS011;35220;46.204;5.220;2022-11-20T13:44:05;3.33;;;2.17;;
48873;SDS011;35220;46.204;5.220;2022-11-20T13:54:27;3.07;;;1.50;;
48873;SDS011;35220;46.204;5.220;2022-11-20T13:59:43;5.00;;;1.60;;
48873;SDS011;35220;46.204;5.220;2022-11-20T14:04:57;2.75;;;1.50;;
48873;SDS011;35220;46.204;5.220;2022-11-20T14:09:59;2.70;;;1.75;;
48873;SDS011;35220;46.204;5.220;2022-11-20T14:15:00;2.17;;;1.50;;
48873;SDS011;35220;46.204;5.220;2022-11-20T14:20:02;4.22;;;1.60;;
48873;SDS011;35220;46.204;5.220;2022-11-20T14:25:27;2.10;;;1.20;;
48873;SDS011;35220;46.204;5.220;2022-11-20T14:30:46;2.95;;;1.40;;
48873;SDS011;35220;46.204;5.220;2022-11-20T14:35:49;1.30;;;1.25;;
48873;SDS011;35220;46.204;5.220;2022-11-20T14:41:09;2.60;;;1.50;;
48873;SDS011;35220;46.204;5.220;2022-11-20T14:46:16;2.83;;;2.60;;
48873;SDS011;35220;46.204;5.220;2022-11-20T14:51:36;1.52;;;1.40;;
48873;SDS011;35220;46.204;5.220;2022-11-20T14:56:41;2.65;;;1.90;;
48873;SDS011;35220;46.204;5.220;2022-11-20T15:01:56;2.58;;;1.75;;
48873;SDS011;35220;46.204;5.220;2022-11-20T15:07:02;2.35;;;1.63;;
48873;SDS011;35220;46.204;5.220;2022-11-20T15:12:02;3.13;;;2.10;;
48873;SDS011;35220;46.204;5.220;2022-11-20T15:17:03;4.03;;;1.83;;
48873;SDS011;35220;46.204;5.220;2022-11-20T15:22:07;2.92;;;1.90;;
48873;SDS011;35220;46.204;5.220;2022-11-20T15:27:12;3.55;;;1.90;;
48873;SDS011;35220;46.204;5.220;2022-11-20T15:32:13;3.65;;;1.58;;
48873;SDS011;35220;46.204;5.220;2022-11-20T15:37:13;5.27;;;2.10;;
48873;SDS011;35220;46.204;5.220;2022-11-20T15:42:14;3.17;;;1.80;;
48873;SDS011;35220;46.204;5.220;2022-11-20T15:47:14;2.00;;;1.60;;
48873;SDS011;35220;46.204;5.220;2022-11-20T15:52:17;3.28;;;1.60;;
48873;SDS011;35220;46.204;5.220;2022-11-20T15:57:17;2.78;;;1.65;;
48873;SDS011;35220;46.204;5.220;2022-11-20T16:02:18;3.67;;;2.20;;
48873;SDS011;35220;46.204;5.220;2022-11-20T16:07:18;3.90;;;2.20;;
48873;SDS011;35220;46.204;5.220;2022-11-20T16:12:18;7.10;;;2.40;;
48873;SDS011;35220;46.204;5.220;2022-11-20T16:17:37;2.83;;;1.80;;
48873;SDS011;35220;46.204;5.220;2022-11-20T16:22:43;4.55;;;1.88;;
48873;SDS011;35220;46.204;5.220;2022-11-20T16:27:44;2.63;;;1.60;;
48873;SDS011;35220;46.204;5.220;2022-11-20T16:32:44;1.90;;;1.70;;
48873;SDS011;35220;46.204;5.220;2022-11-20T16:37:44;2.83;;;2.10;;
48873;SDS011;35220;46.204;5.220;2022-11-20T16:42:45;2.45;;;1.70;;
48873;SDS011;35220;46.204;5.220;2022-11-20T16:47:45;2.77;;;2.20;;
48873;SDS011;35220;46.204;5.220;2022-11-20T16:52:46;5.45;;;2.28;;
48873;SDS011;35220;46.204;5.220;2022-11-20T16:57:46;4.72;;;2.70;;
48873;SDS011;35220;46.204;5.220;2022-11-20T17:02:46;4.97;;;2.77;;
48873;SDS011;35220;46.204;5.220;2022-11-20T17:07:47;6.32;;;2.78;;
48873;SDS011;35220;46.204;5.220;2022-11-20T17:12:49;5.90;;;2.40;;
48873;SDS011;35220;46.204;5.220;2022-11-20T17:17:49;4.63;;;2.63;;
48873;SDS011;35220;46.204;5.220;2022-11-20T17:22:49;4.47;;;2.30;;
48873;SDS011;35220;46.204;5.220;2022-11-20T17:27:50;4.43;;;2.40;;
48873;SDS011;35220;46.204;5.220;2022-11-20T17:32:50;7.10;;;2.23;;
48873;SDS011;35220;46.204;5.220;2022-11-20T17:37:50;3.43;;;1.80;;
48873;SDS011;35220;46.204;5.220;2022-11-20T17:42:51;2.80;;;1.80;;
48873;SDS011;35220;46.204;5.220;2022-11-20T17:47:51;4.17;;;1.97;;
48873;SDS011;35220;46.204;5.220;2022-11-20T17:52:51;3.00;;;1.83;;
48873;SDS011;35220;46.204;5.220;2022-11-20T17:57:52;1.98;;;1.85;;
48873;SDS011;35220;46.204;5.220;2022-11-20T18:02:52;2.65;;;1.80;;
48873;SDS011;35220;46.204;5.220;2022-11-20T18:07:53;4.32;;;1.85;;
48873;SDS011;35220;46.204;5.220;2022-11-20T18:12:53;3.28;;;1.90;;
48873;SDS011;35220;46.204;5.220;2022-11-20T18:17:54;5.68;;;1.95;;
48873;SDS011;35220;46.204;5.220;2022-11-20T18:22:54;2.20;;;1.83;;
48873;SDS011;35220;46.204;5.220;2022-11-20T18:27:55;4.45;;;2.50;;
48873;SDS011;35220;46.204;5.220;2022-11-20T18:32:55;3.80;;;2.10;;
48873;SDS011;35220;46.204;5.220;2022-11-20T18:37:56;6.93;;;2.20;;
48873;SDS011;35220;46.204;5.220;2022-11-20T18:42:56;2.72;;;2.15;;
48873;SDS011;35220;46.204;5.220;2022-11-20T18:48:15;3.88;;;2.13;;
48873;SDS011;35220;46.204;5.220;2022-11-20T18:53:15;4.20;;;2.58;;
48873;SDS011;35220;46.204;5.220;2022-11-20T18:58:16;6.27;;;2.70;;
48873;SDS011;35220;46.204;5.220;2022-11-20T19:03:16;4.88;;;2.20;;
48873;SDS011;35220;46.204;5.220;2022-11-20T19:08:16;4.90;;;2.87;;
48873;SDS011;35220;46.204;5.220;2022-11-20T19:13:17;4.07;;;2.10;;
48873;SDS011;35220;46.204;5.220;2022-11-20T19:18:17;5.22;;;2.35;;
48873;SDS011;35220;46.204;5.220;2022-11-20T19:23:19;4.20;;;2.33;;
48873;SDS011;35220;46.204;5.220;2022-11-20T19:28:21;3.25;;;2.10;;
48873;SDS011;35220;46.204;5.220;2022-11-20T19:33:21;5.27;;;1.90;;
48873;SDS011;35220;46.204;5.220;2022-11-20T19:38:21;2.40;;;1.97;;
48873;SDS011;35220;46.204;5.220;2022-11-20T19:43:22;4.80;;;2.05;;
48873;SDS011;35220;46.204;5.220;2022-11-20T19:48:22;5.05;;;1.98;;
48873;SDS011;35220;46.204;5.220;2022-11-20T19:53:23;3.92;;;2.22;;
48873;SDS011;35220;46.204;5.220;2022-11-20T19:58:23;3.00;;;2.40;;
48873;SDS011;35220;46.204;5.220;2022-11-20T20:03:27;5.75;;;2.40;;
48873;SDS011;35220;46.204;5.220;2022-11-20T20:08:28;3.15;;;2.00;;
48873;SDS011;35220;46.204;5.220;2022-11-20T20:13:29;4.95;;;2.05;;
48873;SDS011;35220;46.204;5.220;2022-11-20T20:18:30;4.05;;;2.58;;
48873;SDS011;35220;46.204;5.220;2022-11-20T20:23:30;4.97;;;2.60;;
48873;SDS011;35220;46.204;5.220;2022-11-20T20:28:31;3.97;;;2.13;;
48873;SDS011;35220;46.204;5.220;2022-11-20T20:33:33;4.00;;;2.28;;
48873;SDS011;35220;46.204;5.220;2022-11-20T20:38:35;5.10;;;2.35;;
48873;SDS011;35220;46.204;5.220;2022-11-20T20:43:36;4.18;;;2.03;;
48873;SDS011;35220;46.204;5.220;2022-11-20T20:48:55;5.63;;;2.28;;
48873;SDS011;35220;46.204;5.220;2022-11-20T20:53:56;3.17;;;2.05;;
48873;SDS011;35220;46.204;5.220;2022-11-20T20:58:57;3.70;;;2.17;;
48873;SDS011;35220;46.204;5.220;2022-11-20T21:03:57;3.25;;;2.05;;
48873;SDS011;35220;46.204;5.220;2022-11-20T21:08:58;4.25;;;2.00;;
48873;SDS011;35220;46.204;5.220;2022-11-20T21:13:58;5.22;;;2.30;;
48873;SDS011;35220;46.204;5.220;2022-11-20T21:18:59;2.70;;;2.20;;
48873;SDS011;35220;46.204;5.220;2022-11-20T21:23:59;2.60;;;2.03;;
48873;SDS011;35220;46.204;5.220;2022-11-20T21:29:00;3.30;;;2.20;;
48873;SDS011;35220;46.204;5.220;2022-11-20T21:34:00;3.13;;;1.90;;
48873;SDS011;35220;46.204;5.220;2022-11-20T21:39:01;3.40;;;2.10;;
48873;SDS011;35220;46.204;5.220;2022-11-20T21:44:02;3.05;;;2.00;;
48873;SDS011;35220;46.204;5.220;2022-11-20T21:49:03;4.30;;;2.00;;
48873;SDS011;35220;46.204;5.220;2022-11-20T21:54:04;5.75;;;2.00;;
48873;SDS011;35220;46.204;5.220;2022-11-20T21:59:04;2.33;;;1.85;;
48873;SDS011;35220;46.204;5.220;2022-11-20T22:04:05;2.67;;;1.98;;
48873;SDS011;35220;46.204;5.220;2022-11-20T22:09:08;2.20;;;1.98;;
48873;SDS011;35220;46.204;5.220;2022-11-20T22:14:09;3.45;;;2.00;;
48873;SDS011;35220;46.204;5.220;2022-11-20T22:19:22;2.35;;;1.85;;
48873;SDS011;35220;46.204;5.220;2022-11-20T22:24:23;3.78;;;1.85;;
48873;SDS011;35220;46.204;5.220;2022-11-20T22:29:23;5.30;;;2.10;;
48873;SDS011;35220;46.204;5.220;2022-11-20T22:34:24;4.63;;;2.45;;
48873;SDS011;35220;46.204;5.220;2022-11-20T22:39:24;3.65;;;2.58;;
48873;SDS011;35220;46.204;5.220;2022-11-20T22:44:25;8.52;;;2.40;;
48873;SDS011;35220;46.204;5.220;2022-11-20T22:49:26;2.67;;;2.00;;
48873;SDS011;35220;46.204;5.220;2022-11-20T22:54:26;4.22;;;2.20;;
48873;SDS011;35220;46.204;5.220;2022-11-20T22:59:27;4.68;;;2.47;;
48873;SDS011;35220;46.204;5.220;2022-11-20T23:04:27;4.43;;;2.22;;
48873;SDS011;35220;46.204;5.220;2022-11-20T23:09:27;4.35;;;2.15;;
48873;SDS011;35220;46.204;5.220;2022-11-20T23:14:28;3.42;;;2.47;;
48873;SDS011;35220;46.204;5.220;2022-11-20T23:19:28;3.47;;;2.20;;
48873;SDS011;35220;46.204;5.220;2022-11-20T23:24:29;4.22;;;2.28;;
48873;SDS011;35220;46.204;5.220;2022-11-20T23:29:29;4.75;;;2.50;;
48873;SDS011;35220;46.204;5.220;2022-11-20T23:34:30;3.40;;;2.42;;
48873;SDS011;35220;46.204;5.220;2022-11-20T23:39:30;5.03;;;2.80;;
48873;SDS011;35220;46.204;5.220;2022-11-20T23:44:31;2.80;;;2.20;;
48873;SDS011;35220;46.204;5.220;2022-11-20T23:49:31;2.33;;;2.00;;
48873;SDS011;35220;46.204;5.220;2022-11-20T23:54:31;4.80;;;2.38;;
48873;SDS011;35220;46.204;5.220;2022-11-20T23:59:32;2.85;;;2.10;;
